createdAt,value
2019-01-06T00:01:02.919Z,98567.20
2019-01-06T00:03:34.673Z,98574.30
2019-01-06T00:06:07.076Z,98583.80
2019-01-06T00:11:32.078Z,98595.41
2019-01-06T00:14:03.042Z,98595.36
2019-01-06T00:16:36.094Z,98593.24
2019-01-06T00:19:04.436Z,98596.05
2019-01-06T00:21:37.388Z,98587.02
2019-01-06T00:26:58.083Z,98570.86
2019-01-06T00:32:24.170Z,98557.78
2019-01-06T00:34:57.116Z,98559.38
2019-01-06T00:37:30.135Z,98556.53
2019-01-06T00:39:59.948Z,98563.62
2019-01-06T00:42:27.341Z,98561.95
2019-01-06T00:45:02.204Z,98560.16
2019-01-06T00:50:31.302Z,98568.15
2019-01-06T00:53:19.431Z,98569.16
2019-01-06T00:56:03.224Z,98577.19
2019-01-06T00:58:36.052Z,98585.57
2019-01-06T01:01:19.515Z,98580.11
2019-01-06T01:03:52.525Z,98577.50
2019-01-06T01:06:22.652Z,98577.16
2019-01-06T01:08:55.620Z,98572.47
2019-01-06T01:11:33.883Z,98568.08
2019-01-06T01:14:06.995Z,98568.47
2019-01-06T01:16:34.782Z,98573.19
2019-01-06T01:19:02.470Z,98582.28
2019-01-06T01:21:29.883Z,98585.78
2019-01-06T01:24:02.903Z,98581.45
2019-01-06T01:26:34.142Z,98583.66
2019-01-06T01:31:57.443Z,98591.06
2019-01-06T01:34:25.281Z,98592.22
2019-01-06T01:36:53.633Z,98596.22
2019-01-06T01:42:20.882Z,98600.98
2019-01-06T01:44:51.126Z,98601.28
2019-01-06T01:47:21.950Z,98610.29
2019-01-06T01:49:52.304Z,98600.97
2019-01-06T01:52:21.631Z,98610.00
2019-01-06T01:54:54.691Z,98599.23
2019-01-06T01:57:37.904Z,98596.80
2019-01-06T02:00:08.875Z,98588.02
2019-01-06T02:02:38.680Z,98587.64
2019-01-06T02:05:25.883Z,98578.93
2019-01-06T02:07:58.955Z,98581.25
2019-01-06T02:10:30.367Z,98573.84
2019-01-06T02:12:59.947Z,98571.61
2019-01-06T02:15:27.379Z,98567.64
2019-01-06T02:18:13.544Z,98573.72
2019-01-06T02:20:43.538Z,98564.97
2019-01-06T02:23:11.669Z,98561.61
2019-01-06T02:25:40.324Z,98560.02
2019-01-06T02:28:10.727Z,98559.59
2019-01-06T02:30:43.718Z,98558.34
2019-01-06T02:33:25.939Z,98557.89
2019-01-06T02:35:56.301Z,98556.55
2019-01-06T02:38:23.703Z,98554.35
2019-01-06T02:40:56.632Z,98545.25
2019-01-06T02:43:25.689Z,98545.22
2019-01-06T02:48:53.032Z,98532.24
2019-01-06T02:51:38.167Z,98535.86
2019-01-06T02:54:05.570Z,98540.95
2019-01-06T02:56:38.519Z,98550.26
2019-01-06T02:59:18.729Z,98550.83
2019-01-06T03:01:49.664Z,98565.52
2019-01-06T03:04:37.848Z,98560.86
2019-01-06T03:07:23.877Z,98565.69
2019-01-06T03:09:57.117Z,98561.44
2019-01-06T03:12:38.164Z,98562.25
2019-01-06T03:15:07.405Z,98546.73
2019-01-06T03:17:39.241Z,98548.88
2019-01-06T03:20:17.407Z,98537.09
2019-01-06T03:22:56.557Z,98546.16
2019-01-06T03:25:28.798Z,98542.25
2019-01-06T03:27:58.008Z,98533.14
2019-01-06T03:30:30.985Z,98533.95
2019-01-06T03:35:55.413Z,98515.77
2019-01-06T03:38:28.368Z,98523.27
2019-01-06T03:41:01.373Z,98527.08
2019-01-06T03:43:28.803Z,98530.13
2019-01-06T03:46:08.035Z,98535.31
2019-01-06T03:48:41.001Z,98522.77
2019-01-06T03:54:19.502Z,98528.06
2019-01-06T03:56:52.463Z,98518.38
2019-01-06T03:59:24.332Z,98523.67
2019-01-06T04:01:54.285Z,98525.94
2019-01-06T04:04:25.103Z,98525.92
2019-01-06T04:06:52.518Z,98523.81
2019-01-06T04:09:35.404Z,98524.75
2019-01-06T04:12:08.423Z,98528.63
2019-01-06T04:17:35.612Z,98531.56
2019-01-06T04:20:12.911Z,98527.02
2019-01-06T04:25:52.337Z,98529.06
2019-01-06T04:28:20.382Z,98536.97
2019-01-06T04:30:53.509Z,98534.91
2019-01-06T04:33:27.115Z,98533.30
2019-01-06T04:36:00.032Z,98526.36
2019-01-06T04:38:33.941Z,98526.41
2019-01-06T04:43:57.553Z,98532.03
2019-01-06T04:46:30.517Z,98536.65
2019-01-06T04:49:03.518Z,98540.55
2019-01-06T04:51:51.802Z,98540.55
2019-01-06T04:54:24.829Z,98538.51
2019-01-06T04:56:58.497Z,98532.60
2019-01-06T04:59:30.829Z,98528.33
2019-01-06T05:05:00.778Z,98532.17
2019-01-06T05:10:27.877Z,98530.08
2019-01-06T05:13:14.449Z,98526.77
2019-01-06T05:15:42.386Z,98537.33
2019-01-06T05:18:13.839Z,98532.20
2019-01-06T05:20:46.939Z,98534.67
2019-01-06T05:23:15.649Z,98538.18
2019-01-06T05:25:43.055Z,98541.21
2019-01-06T05:28:16.126Z,98541.62
2019-01-06T05:30:48.499Z,98532.48
2019-01-06T05:36:09.857Z,98529.70
2019-01-06T05:38:42.881Z,98531.52
2019-01-06T05:44:03.549Z,98532.82
2019-01-06T05:46:32.756Z,98532.56
2019-01-06T05:49:06.616Z,98540.05
2019-01-06T05:51:34.939Z,98541.50
2019-01-06T05:54:07.972Z,98531.30
2019-01-06T05:56:41.032Z,98524.41
2019-01-06T05:59:23.385Z,98529.17
2019-01-06T06:01:53.176Z,98543.84
2019-01-06T06:04:22.504Z,98533.11
2019-01-06T06:09:46.510Z,98530.72
2019-01-06T06:12:15.751Z,98533.45
2019-01-06T06:14:43.636Z,98526.16
2019-01-06T06:17:12.947Z,98513.28
2019-01-06T06:19:46.016Z,98508.36
2019-01-06T06:22:20.038Z,98514.14
2019-01-06T06:25:01.407Z,98509.05
2019-01-06T06:27:31.296Z,98506.02
2019-01-06T06:30:14.486Z,98509.92
2019-01-06T06:32:43.442Z,98503.37
2019-01-06T06:35:16.567Z,98508.59
2019-01-06T06:37:45.659Z,98503.27
2019-01-06T06:40:26.804Z,98500.70
2019-01-06T06:45:51.979Z,98493.19
2019-01-06T06:48:25.058Z,98500.75
2019-01-06T06:50:53.931Z,98489.66
2019-01-06T06:53:31.523Z,98494.15
2019-01-06T06:55:59.247Z,98493.80
2019-01-06T06:58:33.126Z,98503.45
2019-01-06T07:01:09.240Z,98518.69
2019-01-06T07:03:40.064Z,98524.15
2019-01-06T07:06:13.198Z,98526.85
2019-01-06T07:11:47.711Z,98510.71
2019-01-06T07:14:35.165Z,98515.72
2019-01-06T07:20:20.255Z,98529.66
2019-01-06T07:23:06.414Z,98543.64
2019-01-06T07:25:37.533Z,98548.82
2019-01-06T07:28:16.509Z,98544.80
2019-01-06T07:31:02.590Z,98538.73
2019-01-06T07:36:36.685Z,98559.87
2019-01-06T07:39:05.055Z,98562.63
2019-01-06T07:41:38.976Z,98562.69
2019-01-06T07:44:26.067Z,98570.48
2019-01-06T07:47:13.263Z,98570.04
2019-01-06T07:49:55.617Z,98574.70
2019-01-06T07:52:36.108Z,98570.73
2019-01-06T07:55:03.789Z,98570.23
2019-01-06T07:57:41.955Z,98571.95
2019-01-06T08:00:15.399Z,98572.44
2019-01-06T08:02:50.939Z,98574.06
2019-01-06T08:05:21.255Z,98568.53
2019-01-06T08:07:55.687Z,98572.78
2019-01-06T08:10:27.162Z,98573.53
2019-01-06T08:12:57.974Z,98574.38
2019-01-06T08:15:44.168Z,98573.02
2019-01-06T08:18:28.408Z,98569.53
2019-01-06T08:24:07.831Z,98565.11
2019-01-06T08:26:40.829Z,98576.44
2019-01-06T08:29:14.494Z,98573.45
2019-01-06T08:31:45.327Z,98581.19
2019-01-06T08:34:15.132Z,98578.69
2019-01-06T08:36:58.531Z,98571.32
2019-01-06T08:39:36.694Z,98579.84
2019-01-06T08:42:04.109Z,98572.71
2019-01-06T08:44:37.000Z,98562.16
2019-01-06T08:50:09.441Z,98568.82
2019-01-06T08:52:36.859Z,98570.31
2019-01-06T08:57:59.076Z,98566.59
2019-01-06T09:00:26.857Z,98567.91
2019-01-06T09:03:13.082Z,98565.34
2019-01-06T09:05:43.273Z,98562.67
2019-01-06T09:11:11.591Z,98566.02
2019-01-06T09:16:48.790Z,98559.89
2019-01-06T09:19:21.763Z,98553.61
2019-01-06T09:21:54.764Z,98558.28
2019-01-06T09:24:27.762Z,98560.13
2019-01-06T09:27:00.908Z,98560.52
2019-01-06T09:29:33.929Z,98560.09
2019-01-06T09:32:06.856Z,98567.87
2019-01-06T09:34:38.057Z,98562.66
2019-01-06T09:40:04.408Z,98568.95
2019-01-06T09:42:33.198Z,98568.52
2019-01-06T09:45:06.081Z,98573.25
2019-01-06T09:47:49.978Z,98572.80
2019-01-06T09:50:35.284Z,98577.57
2019-01-06T09:56:19.681Z,98576.14
2019-01-06T09:59:02.907Z,98581.72
2019-01-06T10:04:25.435Z,98587.90
2019-01-06T10:07:08.660Z,98591.52
2019-01-06T10:09:39.990Z,98589.23
2019-01-06T10:12:09.774Z,98602.12
2019-01-06T10:17:31.745Z,98595.69
2019-01-06T10:22:56.773Z,98591.25
2019-01-06T10:25:28.564Z,98587.97
2019-01-06T10:28:01.736Z,98588.00
2019-01-06T10:30:35.242Z,98581.91
2019-01-06T10:33:18.543Z,98587.83
2019-01-06T10:35:57.665Z,98583.47
2019-01-06T10:38:30.785Z,98580.41
2019-01-06T10:41:02.585Z,98580.78
2019-01-06T10:43:30.040Z,98575.08
2019-01-06T10:48:56.178Z,98571.53
2019-01-06T10:51:28.903Z,98572.65
2019-01-06T10:54:14.707Z,98577.73
2019-01-06T10:56:43.342Z,98567.73
2019-01-06T10:59:16.376Z,98570.20
2019-01-06T11:01:44.654Z,98566.69
2019-01-06T11:04:18.690Z,98566.02
2019-01-06T11:09:44.861Z,98562.66
2019-01-06T11:12:17.903Z,98561.95
2019-01-06T11:14:46.584Z,98561.68
2019-01-06T11:17:18.863Z,98565.13
2019-01-06T11:22:43.312Z,98554.52
2019-01-06T11:25:16.549Z,98551.28
2019-01-06T11:27:48.415Z,98543.19
2019-01-06T11:30:21.494Z,98545.48
2019-01-06T11:32:54.584Z,98537.23
2019-01-06T11:35:23.928Z,98534.66
2019-01-06T11:38:07.112Z,98531.42
2019-01-06T11:40:42.040Z,98524.34
2019-01-06T11:43:10.219Z,98525.34
2019-01-06T11:45:53.311Z,98523.05
2019-01-06T11:51:21.139Z,98521.00
2019-01-06T11:53:54.415Z,98514.54
2019-01-06T11:56:24.366Z,98519.81
2019-01-06T11:58:52.683Z,98516.62
2019-01-06T12:01:20.096Z,98517.63
2019-01-06T12:04:02.520Z,98516.26
2019-01-06T12:06:40.752Z,98514.37
2019-01-06T12:09:18.807Z,98508.69
2019-01-06T12:11:51.723Z,98518.10
2019-01-06T12:14:39.884Z,98521.86
2019-01-06T12:17:12.923Z,98514.33
2019-01-06T12:19:46.027Z,98522.87
2019-01-06T12:22:19.115Z,98515.96
2019-01-06T12:24:52.039Z,98505.30
2019-01-06T12:30:32.346Z,98506.76
2019-01-06T12:33:05.358Z,98511.30
2019-01-06T12:38:38.615Z,98510.88
2019-01-06T12:41:15.933Z,98501.29
2019-01-06T12:44:04.190Z,98500.67
2019-01-06T12:46:37.423Z,98505.40
2019-01-06T12:49:08.230Z,98504.84
2019-01-06T12:51:55.540Z,98502.00
2019-01-06T12:57:33.320Z,98505.75
2019-01-06T13:00:06.310Z,98500.56
2019-01-06T13:02:38.184Z,98501.01
2019-01-06T13:05:21.345Z,98498.76
2019-01-06T13:07:49.717Z,98492.93
2019-01-06T13:10:22.502Z,98497.39
2019-01-06T13:16:06.160Z,98497.28
2019-01-06T13:18:33.956Z,98498.45
2019-01-06T13:21:01.368Z,98499.20
2019-01-06T13:23:32.820Z,98493.39
2019-01-06T13:29:07.722Z,98496.30
2019-01-06T13:31:37.606Z,98492.97
2019-01-06T13:34:05.714Z,98501.09
2019-01-06T13:36:39.135Z,98501.16
2019-01-06T13:39:10.999Z,98501.09
2019-01-06T13:41:40.270Z,98505.36
2019-01-06T13:44:10.643Z,98498.78
2019-01-06T13:46:43.653Z,98504.61
2019-01-06T13:49:14.016Z,98510.16
2019-01-06T13:51:55.840Z,98508.63
2019-01-06T13:54:30.362Z,98508.37
2019-01-06T13:57:01.846Z,98507.94
2019-01-06T13:59:31.755Z,98513.09
2019-01-06T14:02:04.065Z,98514.22
2019-01-06T14:04:32.360Z,98514.89
2019-01-06T14:07:00.919Z,98514.53
2019-01-06T14:12:25.000Z,98527.18
2019-01-06T14:14:58.037Z,98518.13
2019-01-06T14:17:31.132Z,98519.77
2019-01-06T14:20:04.215Z,98515.20
2019-01-06T14:22:33.193Z,98517.72
2019-01-06T14:25:11.415Z,98520.92
2019-01-06T14:27:44.445Z,98522.32
2019-01-06T14:30:17.991Z,98519.77
2019-01-06T14:32:49.030Z,98527.75
2019-01-06T14:35:21.894Z,98527.99
2019-01-06T14:37:50.850Z,98525.48
2019-01-06T14:40:19.628Z,98527.30
2019-01-06T14:42:52.719Z,98528.27
2019-01-06T14:45:24.003Z,98522.93
2019-01-06T14:47:53.179Z,98526.84
2019-01-06T14:50:27.178Z,98521.69
2019-01-06T14:53:05.319Z,98525.17
2019-01-06T14:55:42.643Z,98526.66
2019-01-06T14:58:24.939Z,98525.81
2019-01-06T15:00:54.247Z,98529.38
2019-01-06T15:03:27.333Z,98529.41
2019-01-06T15:06:00.286Z,98530.86
2019-01-06T15:08:46.312Z,98534.83
2019-01-06T15:11:33.006Z,98530.53
2019-01-06T15:14:05.379Z,98535.34
2019-01-06T15:16:32.863Z,98533.27
2019-01-06T15:19:15.968Z,98530.67
2019-01-06T15:21:58.286Z,98532.85
2019-01-06T15:27:24.156Z,98530.75
2019-01-06T15:32:47.831Z,98540.30
2019-01-06T15:35:19.213Z,98544.09
2019-01-06T15:37:52.200Z,98539.28
2019-01-06T15:40:32.547Z,98550.58
2019-01-06T15:43:03.755Z,98548.17
2019-01-06T15:45:36.930Z,98548.88
2019-01-06T15:48:22.144Z,98548.11
2019-01-06T15:53:47.506Z,98547.13
2019-01-06T15:56:30.868Z,98552.22
2019-01-06T15:58:58.683Z,98558.48
2019-01-06T16:01:26.066Z,98555.59
2019-01-06T16:07:06.395Z,98548.23
2019-01-06T16:09:34.070Z,98556.24
2019-01-06T16:12:07.032Z,98560.27
2019-01-06T16:14:37.822Z,98557.05
2019-01-06T16:17:24.599Z,98557.59
2019-01-06T16:20:12.827Z,98550.81
2019-01-06T16:22:45.731Z,98565.58
2019-01-06T16:25:14.008Z,98556.94
2019-01-06T16:27:47.078Z,98562.15
2019-01-06T16:30:14.474Z,98559.97
2019-01-06T16:32:45.281Z,98562.36
2019-01-06T16:35:13.312Z,98564.23
2019-01-06T16:37:46.294Z,98572.58
2019-01-06T16:40:17.246Z,98571.33
2019-01-06T16:42:48.202Z,98574.86
2019-01-06T16:45:15.591Z,98578.75
2019-01-06T16:47:57.939Z,98581.73
2019-01-06T16:50:43.042Z,98576.78
2019-01-06T16:53:10.825Z,98578.08
2019-01-06T16:55:43.895Z,98578.19
2019-01-06T17:01:09.855Z,98585.73
2019-01-06T17:03:43.271Z,98577.67
2019-01-06T17:06:29.518Z,98575.30
2019-01-06T17:09:17.087Z,98566.69
2019-01-06T17:11:50.162Z,98578.20
2019-01-06T17:14:32.546Z,98574.30
2019-01-06T17:17:09.878Z,98582.34
2019-01-06T17:19:41.244Z,98582.93
2019-01-06T17:22:10.100Z,98581.66
2019-01-06T17:24:47.443Z,98582.53
2019-01-06T17:27:18.206Z,98580.41
2019-01-06T17:29:48.111Z,98581.63
2019-01-06T17:32:17.905Z,98581.08
2019-01-06T17:34:45.369Z,98584.06
2019-01-06T17:37:18.698Z,98582.27
2019-01-06T17:42:58.950Z,98573.23
2019-01-06T17:45:29.798Z,98580.91
2019-01-06T17:48:07.102Z,98581.98
2019-01-06T17:50:36.989Z,98575.28
2019-01-06T17:53:10.344Z,98576.35
2019-01-06T17:55:43.498Z,98578.32
2019-01-06T17:58:18.239Z,98573.68
2019-01-06T18:03:38.747Z,98579.56
2019-01-06T18:06:22.011Z,98575.41
2019-01-06T18:09:04.764Z,98578.65
2019-01-06T18:11:37.738Z,98577.05
2019-01-06T18:14:05.988Z,98575.95
2019-01-06T18:16:33.415Z,98570.84
2019-01-06T18:22:02.034Z,98573.75
2019-01-06T18:24:34.970Z,98581.33
2019-01-06T18:27:02.906Z,98588.73
2019-01-06T18:29:32.143Z,98583.59
2019-01-06T18:34:57.455Z,98592.60
2019-01-06T18:37:25.845Z,98597.13
2019-01-06T18:39:58.695Z,98595.94
2019-01-06T18:45:39.256Z,98602.44
2019-01-06T18:48:12.816Z,98595.34
2019-01-06T18:50:57.812Z,98599.05
2019-01-06T18:56:23.230Z,98597.64
2019-01-06T18:58:56.583Z,98603.56
2019-01-06T19:01:29.465Z,98601.63
2019-01-06T19:04:02.550Z,98607.75
2019-01-06T19:06:29.959Z,98604.67
2019-01-06T19:09:12.255Z,98606.45
2019-01-06T19:11:41.659Z,98603.30
2019-01-06T19:14:11.511Z,98598.17
2019-01-06T19:16:50.769Z,98599.56
2019-01-06T19:19:35.816Z,98602.66
2019-01-06T19:25:00.080Z,98597.78
2019-01-06T19:27:45.311Z,98593.22
2019-01-06T19:30:23.561Z,98597.91
2019-01-06T19:35:51.977Z,98603.30
2019-01-06T19:38:32.117Z,98599.26
2019-01-06T19:41:05.329Z,98598.61
2019-01-06T19:46:31.392Z,98600.70
2019-01-06T19:48:59.179Z,98611.34
2019-01-06T19:51:26.909Z,98614.55
2019-01-06T19:54:10.131Z,98610.77
2019-01-06T19:56:41.234Z,98623.45
2019-01-06T19:59:13.603Z,98614.82
2019-01-06T20:01:57.981Z,98618.31
2019-01-06T20:04:29.732Z,98614.00
2019-01-06T20:07:03.461Z,98610.58
2019-01-06T20:09:38.216Z,98626.75
2019-01-06T20:15:06.398Z,98607.51
2019-01-06T20:17:35.735Z,98606.77
2019-01-06T20:20:05.575Z,98613.86
2019-01-06T20:25:41.930Z,98612.98
2019-01-06T20:28:14.945Z,98607.08
2019-01-06T20:30:47.139Z,98605.92
2019-01-06T20:33:33.847Z,98600.31
2019-01-06T20:39:01.216Z,98604.17
2019-01-06T20:41:32.061Z,98603.52
2019-01-06T20:44:01.860Z,98606.98
2019-01-06T20:49:27.945Z,98608.58
2019-01-06T20:52:00.991Z,98609.58
2019-01-06T20:54:33.912Z,98615.80
2019-01-06T20:57:13.196Z,98609.48
2019-01-06T20:59:46.136Z,98607.01
2019-01-06T21:05:15.106Z,98615.22
2019-01-06T21:07:48.208Z,98612.55
2019-01-06T21:10:32.282Z,98610.92
2019-01-06T21:13:14.641Z,98607.89
2019-01-06T21:15:47.736Z,98609.22
2019-01-06T21:21:24.356Z,98608.30
2019-01-06T21:24:07.589Z,98606.50
2019-01-06T21:26:51.632Z,98611.89
2019-01-06T21:29:19.409Z,98613.22
2019-01-06T21:31:48.715Z,98610.97
2019-01-06T21:37:29.679Z,98612.56
2019-01-06T21:39:57.122Z,98613.66
2019-01-06T21:42:24.592Z,98613.36
2019-01-06T21:44:51.999Z,98613.10
2019-01-06T21:47:25.132Z,98618.77
2019-01-06T21:49:55.928Z,98614.64
2019-01-06T21:52:29.008Z,98619.89
2019-01-06T21:55:12.223Z,98611.56
2019-01-06T21:57:56.371Z,98616.88
2019-01-06T22:00:29.250Z,98612.77
2019-01-06T22:02:57.439Z,98614.87
2019-01-06T22:05:27.898Z,98621.23
2019-01-06T22:08:00.599Z,98618.20
2019-01-06T22:10:28.939Z,98623.02
2019-01-06T22:12:59.137Z,98628.27
2019-01-06T22:18:22.081Z,98618.16
2019-01-06T22:20:53.909Z,98626.73
2019-01-06T22:26:23.019Z,98621.56
2019-01-06T22:28:55.941Z,98616.03
2019-01-06T22:31:29.058Z,98617.52
2019-01-06T22:34:00.455Z,98623.73
2019-01-06T22:36:27.871Z,98623.99
2019-01-06T22:39:11.121Z,98619.24
2019-01-06T22:41:50.327Z,98619.28
2019-01-06T22:44:18.690Z,98615.85
2019-01-06T22:49:57.165Z,98613.81
2019-01-06T22:52:36.687Z,98620.94
2019-01-06T22:55:02.046Z,98615.48
2019-01-06T23:00:38.165Z,98626.82
2019-01-06T23:03:22.771Z,98613.57
2019-01-06T23:06:05.232Z,98617.58
2019-01-06T23:08:32.833Z,98620.80
2019-01-06T23:11:13.964Z,98625.12
2019-01-06T23:13:47.014Z,98619.66
2019-01-06T23:16:20.854Z,98619.73
2019-01-06T23:18:52.713Z,98619.41
2019-01-06T23:21:22.604Z,98621.98
2019-01-06T23:24:01.812Z,98616.70
2019-01-06T23:29:40.241Z,98615.98
2019-01-06T23:35:15.680Z,98607.63
2019-01-06T23:37:43.119Z,98611.39
2019-01-06T23:40:16.395Z,98601.68
2019-01-06T23:42:45.751Z,98614.52
2019-01-06T23:45:16.452Z,98616.77
2019-01-06T23:47:53.801Z,98613.74
2019-01-06T23:50:26.831Z,98610.73
2019-01-06T23:52:59.785Z,98607.73
2019-01-06T23:55:27.171Z,98612.13
2019-01-06T23:58:09.481Z,98607.73
